createdAt,value
2022-10-31T00:03:23.939Z,14.80
2022-10-31T00:08:25.611Z,15.00
2022-10-31T00:13:27.355Z,14.90
2022-10-31T00:18:29.322Z,15.20
2022-10-31T00:23:30.984Z,14.90
2022-10-31T00:28:32.720Z,15.10
2022-10-31T00:33:36.117Z,15.00
2022-10-31T00:38:37.776Z,14.90
2022-10-31T00:43:39.540Z,15.00
2022-10-31T00:48:41.792Z,14.90
2022-10-31T00:53:43.664Z,14.80
2022-10-31T00:58:45.361Z,14.80
2022-10-31T01:03:47.070Z,14.70
2022-10-31T01:08:48.916Z,14.80
2022-10-31T01:13:54.713Z,14.50
2022-10-31T01:18:56.815Z,14.50
2022-10-31T01:23:58.982Z,14.50
2022-10-31T01:29:08.784Z,15.10
2022-10-31T01:34:15.318Z,14.90
2022-10-31T01:39:17.016Z,15.10
2022-10-31T01:44:18.660Z,15.10
2022-10-31T01:49:31.895Z,15.10
2022-10-31T01:54:38.923Z,15.00
2022-10-31T01:59:44.937Z,14.90
2022-10-31T02:04:48.602Z,14.80
2022-10-31T02:09:51.140Z,14.20
2022-10-31T02:14:52.846Z,14.60
2022-10-31T02:20:30.668Z,14.40
2022-10-31T02:26:18.721Z,14.50
2022-10-31T02:32:00.678Z,13.90
2022-10-31T02:37:19.263Z,13.80
2022-10-31T02:42:26.679Z,14.30
2022-10-31T02:47:33.192Z,14.10
2022-10-31T02:52:36.015Z,13.90
2022-10-31T02:57:38.766Z,14.30
2022-10-31T03:03:11.279Z,14.00
2022-10-31T03:08:30.556Z,14.10
2022-10-31T03:13:51.398Z,13.80
2022-10-31T03:19:07.991Z,14.20
2022-10-31T03:24:11.451Z,14.10
2022-10-31T03:29:17.323Z,14.00
2022-10-31T03:34:21.491Z,14.50
2022-10-31T03:39:24.355Z,14.20
2022-10-31T03:44:30.300Z,14.20
2022-10-31T03:49:33.401Z,14.00
2022-10-31T03:54:44.121Z,14.10
2022-10-31T03:59:51.405Z,13.80
2022-10-31T04:04:53.595Z,13.70
2022-10-31T04:09:56.447Z,13.90
2022-10-31T04:14:59.766Z,13.70
2022-10-31T04:20:02.496Z,13.80
2022-10-31T04:25:04.508Z,14.00
2022-10-31T04:30:06.885Z,14.20
2022-10-31T04:35:08.680Z,13.90
2022-10-31T04:40:10.986Z,13.70
2022-10-31T04:45:15.504Z,13.70
2022-10-31T04:50:20.372Z,13.80
2022-10-31T04:55:22.182Z,13.70
2022-10-31T05:00:24.406Z,13.60
2022-10-31T05:05:31.824Z,13.50
2022-10-31T05:10:33.510Z,13.30
2022-10-31T05:15:35.238Z,13.20
2022-10-31T05:20:36.940Z,13.20
2022-10-31T05:25:38.584Z,13.10
2022-10-31T05:30:40.260Z,13.40
2022-10-31T05:35:41.965Z,13.40
2022-10-31T05:40:43.709Z,12.90
2022-10-31T05:45:45.434Z,12.80
2022-10-31T05:50:48.917Z,12.90
2022-10-31T05:55:50.566Z,13.10
2022-10-31T06:00:52.256Z,12.70
2022-10-31T06:05:55.267Z,13.00
2022-10-31T06:10:57.278Z,12.90
2022-10-31T06:15:58.965Z,12.90
2022-10-31T06:21:00.659Z,12.90
2022-10-31T06:26:02.355Z,13.20
2022-10-31T06:31:04.067Z,13.40
2022-10-31T06:36:05.877Z,13.50
2022-10-31T06:41:07.980Z,13.40
2022-10-31T06:46:09.664Z,13.90
2022-10-31T06:51:11.342Z,14.00
2022-10-31T06:56:13.047Z,13.80
2022-10-31T07:01:14.837Z,13.50
2022-10-31T07:06:16.908Z,13.50
2022-10-31T07:11:18.643Z,13.70
2022-10-31T07:16:20.303Z,14.10
2022-10-31T07:21:21.988Z,14.10
2022-10-31T07:26:23.662Z,14.60
2022-10-31T07:31:25.475Z,14.90
2022-10-31T07:36:27.225Z,15.00
2022-10-31T07:41:28.934Z,15.10
2022-10-31T07:46:30.592Z,14.90
2022-10-31T07:51:32.267Z,15.10
2022-10-31T07:56:33.922Z,15.00
2022-10-31T08:01:35.572Z,15.20
2022-10-31T08:06:37.248Z,15.40
2022-10-31T08:11:39.066Z,15.50
2022-10-31T08:16:40.728Z,15.70
2022-10-31T08:21:42.358Z,16.20
2022-10-31T08:26:44.032Z,16.40
2022-10-31T08:31:45.689Z,16.50
2022-10-31T08:36:47.386Z,16.60
2022-10-31T08:41:49.049Z,17.00
2022-10-31T08:46:50.775Z,17.20
2022-10-31T08:51:52.462Z,17.30
2022-10-31T08:56:57.221Z,17.50
2022-10-31T09:01:59.062Z,17.60
2022-10-31T09:07:20.183Z,17.70
2022-10-31T09:12:22.740Z,18.00
2022-10-31T09:17:24.445Z,18.20
2022-10-31T09:22:26.145Z,18.60
2022-10-31T09:27:28.327Z,18.90
2022-10-31T09:32:30.011Z,19.40
2022-10-31T09:37:31.746Z,19.60
2022-10-31T09:42:48.416Z,19.60
2022-10-31T09:48:04.444Z,19.80
2022-10-31T09:53:16.385Z,20.00
2022-10-31T09:58:21.322Z,20.30
2022-10-31T10:03:46.444Z,20.10
2022-10-31T10:08:48.203Z,20.40
2022-10-31T10:14:08.056Z,20.40
2022-10-31T10:19:19.915Z,20.70
2022-10-31T10:24:50.882Z,20.70
2022-10-31T10:30:23.574Z,20.60
2022-10-31T10:35:33.833Z,20.80
2022-10-31T10:40:35.508Z,21.30
2022-10-31T10:45:38.537Z,21.70
2022-10-31T10:50:48.816Z,22.20
2022-10-31T10:56:18.455Z,22.00
2022-10-31T11:01:20.128Z,22.30
2022-10-31T11:06:24.418Z,22.40
2022-10-31T11:11:30.864Z,22.20
2022-10-31T11:16:43.003Z,23.00
2022-10-31T11:21:48.475Z,23.60
2022-10-31T11:27:03.352Z,23.40
2022-10-31T11:32:05.283Z,23.40
2022-10-31T11:37:23.373Z,24.00
2022-10-31T11:42:29.765Z,24.00
2022-10-31T11:47:32.879Z,24.20
2022-10-31T11:52:34.645Z,23.60
2022-10-31T11:57:48.298Z,24.20
2022-10-31T12:02:50.573Z,24.60
2022-10-31T12:07:53.223Z,24.20
2022-10-31T12:13:14.744Z,24.20
2022-10-31T12:18:31.466Z,24.00
2022-10-31T12:23:38.938Z,24.30
2022-10-31T12:28:47.190Z,24.50
2022-10-31T12:33:55.425Z,23.90
2022-10-31T12:39:03.406Z,23.70
2022-10-31T12:44:40.166Z,23.70
2022-10-31T12:50:15.693Z,24.20
2022-10-31T12:55:51.351Z,24.20
2022-10-31T13:01:12.262Z,24.10
2022-10-31T13:06:45.057Z,24.20
2022-10-31T13:11:52.841Z,24.00
2022-10-31T13:16:56.814Z,24.10
2022-10-31T13:22:17.517Z,24.50
2022-10-31T13:27:45.827Z,24.00
2022-10-31T13:32:48.366Z,24.20
2022-10-31T13:38:02.894Z,24.40
2022-10-31T13:43:27.792Z,24.10
2022-10-31T13:48:29.883Z,23.80
2022-10-31T13:53:46.635Z,23.40
2022-10-31T13:59:09.553Z,23.80
2022-10-31T14:04:24.957Z,23.90
2022-10-31T14:09:38.254Z,23.80
2022-10-31T14:15:05.061Z,23.90
2022-10-31T14:20:13.040Z,24.00
2022-10-31T14:25:34.303Z,23.70
2022-10-31T14:30:37.598Z,23.70
2022-10-31T14:35:55.258Z,23.40
2022-10-31T14:41:27.007Z,23.50
2022-10-31T14:46:37.093Z,23.20
2022-10-31T14:51:48.188Z,23.30
2022-10-31T14:56:54.651Z,22.90
2022-10-31T15:02:07.943Z,22.70
2022-10-31T15:07:25.079Z,22.40
2022-10-31T15:12:32.212Z,22.20
2022-10-31T15:17:33.918Z,22.10
2022-10-31T15:22:36.095Z,21.80
2022-10-31T15:27:41.588Z,21.60
2022-10-31T15:32:57.259Z,21.40
2022-10-31T15:38:00.518Z,21.10
2022-10-31T15:43:05.542Z,21.00
2022-10-31T15:48:25.774Z,20.70
2022-10-31T15:53:36.402Z,20.40
2022-10-31T15:58:45.367Z,20.20
2022-10-31T16:04:27.144Z,19.90
2022-10-31T16:09:29.241Z,19.80
2022-10-31T16:14:39.719Z,19.70
2022-10-31T16:20:02.431Z,19.60
2022-10-31T16:25:10.141Z,19.50
2022-10-31T16:30:46.942Z,19.20
2022-10-31T16:35:55.821Z,19.10
2022-10-31T16:40:57.941Z,18.90
2022-10-31T16:45:59.591Z,18.90
2022-10-31T16:51:01.852Z,18.70
2022-10-31T16:56:05.177Z,18.70
2022-10-31T17:01:07.856Z,18.60
2022-10-31T17:06:18.990Z,18.50
2022-10-31T17:11:23.614Z,18.50
2022-10-31T17:16:25.392Z,18.40
2022-10-31T17:21:27.086Z,18.30
2022-10-31T17:26:28.724Z,18.50
2022-10-31T17:31:33.240Z,18.10
2022-10-31T17:36:35.765Z,17.90
2022-10-31T17:41:37.400Z,18.00
2022-10-31T17:46:39.215Z,17.90
2022-10-31T17:51:40.949Z,17.60
2022-10-31T17:56:42.614Z,17.70
2022-10-31T18:01:44.364Z,17.70
2022-10-31T18:06:46.100Z,17.70
2022-10-31T18:11:47.787Z,17.60
2022-10-31T18:16:49.786Z,17.40
2022-10-31T18:21:51.455Z,17.70
2022-10-31T18:26:55.226Z,17.60
2022-10-31T18:31:57.185Z,17.40
2022-10-31T18:36:58.863Z,17.40
2022-10-31T18:42:00.767Z,17.10
2022-10-31T18:47:02.631Z,17.20
2022-10-31T18:52:05.167Z,17.00
2022-10-31T18:57:06.971Z,17.30
2022-10-31T19:02:12.296Z,17.20
2022-10-31T19:07:14.022Z,16.90
2022-10-31T19:12:15.706Z,16.90
2022-10-31T19:17:17.475Z,16.80
2022-10-31T19:22:19.364Z,16.80
2022-10-31T19:27:21.086Z,16.70
2022-10-31T19:32:22.792Z,16.80
2022-10-31T19:37:24.650Z,16.90
2022-10-31T19:42:26.319Z,16.90
2022-10-31T19:47:28.145Z,16.80
2022-10-31T19:52:32.707Z,16.50
2022-10-31T19:58:00.843Z,16.70
2022-10-31T20:02:56.363Z,16.80
2022-10-31T20:07:58.097Z,16.90
2022-10-31T20:12:59.984Z,17.10
2022-10-31T20:18:01.867Z,17.10
2022-10-31T20:23:04.094Z,16.90
2022-10-31T20:28:05.856Z,17.10
2022-10-31T20:33:07.659Z,17.10
2022-10-31T20:38:09.858Z,16.90
2022-10-31T20:43:12.132Z,16.80
2022-10-31T20:48:13.869Z,16.70
2022-10-31T20:53:15.579Z,16.70
2022-10-31T20:58:17.425Z,16.70
2022-10-31T21:03:19.594Z,16.50
2022-10-31T21:08:21.450Z,16.50
2022-10-31T21:13:23.477Z,16.40
2022-10-31T21:18:25.182Z,16.20
2022-10-31T21:23:26.940Z,16.30
2022-10-31T21:28:28.617Z,16.30
2022-10-31T21:33:30.286Z,16.20
2022-10-31T21:38:32.634Z,16.30
2022-10-31T21:43:39.568Z,16.40
2022-10-31T21:48:42.404Z,16.30
2022-10-31T21:53:44.546Z,16.10
2022-10-31T21:58:46.566Z,16.00
2022-10-31T22:03:48.522Z,16.00
2022-10-31T22:08:50.236Z,16.00
2022-10-31T22:13:51.989Z,16.00
2022-10-31T22:18:55.664Z,15.90
2022-10-31T22:24:01.973Z,16.00
2022-10-31T22:29:11.191Z,15.60
2022-10-31T22:34:13.999Z,15.50
2022-10-31T22:39:15.692Z,15.60
2022-10-31T22:44:17.412Z,15.40
2022-10-31T22:49:19.100Z,15.50
2022-10-31T22:54:20.981Z,15.50
2022-10-31T22:59:22.673Z,15.70
2022-10-31T23:04:24.353Z,15.70
2022-10-31T23:09:26.095Z,15.50
2022-10-31T23:14:27.757Z,15.30
2022-10-31T23:19:30.524Z,15.80
2022-10-31T23:24:32.129Z,15.30
2022-10-31T23:29:38.460Z,15.10
2022-10-31T23:34:40.163Z,15.00
2022-10-31T23:39:41.828Z,14.90
2022-10-31T23:44:43.502Z,15.10
2022-10-31T23:49:45.326Z,15.10
2022-10-31T23:54:47.301Z,15.30
2022-10-31T23:59:48.919Z,15.00
